Time;durP1;ratioP1;P1;durP2;ratioP2;P2;SDS_P1;SDS_P2;PMS_P1;PMS_P2;Temp;Humidity;BMP_temperature;BMP_pressure;BME280_temperature;BME280_humidity;BME280_pressure;Samples;Min_cycle;Max_cycle;Signal;HPM_P1;HPM_P2
2022/05/25 00:01:44;;;;;;;8.60;6.72;;;13.20;99.90;;;;;;4995380;28;91762;-71
2022/05/25 00:04:12;;;;;;;7.15;6.53;;;13.10;99.90;;;;;;4994576;28;95861;-71
2022/05/25 00:06:40;;;;;;;7.20;6.55;;;13.10;99.90;;;;;;4995625;28;92380;-71
2022/05/25 00:09:07;;;;;;;6.55;6.05;;;13.00;99.90;;;;;;4994204;28;94870;-71
2022/05/25 00:11:34;;;;;;;7.70;7.00;;;13.00;99.90;;;;;;4994400;28;92515;-71
2022/05/25 00:14:03;;;;;;;8.35;7.05;;;13.00;99.90;;;;;;4995613;28;93236;-71
2022/05/25 00:16:30;;;;;;;8.85;7.10;;;12.90;99.90;;;;;;4995591;28;92998;-72
2022/05/25 00:21:43;;;;;;;6.43;5.82;;;12.90;99.90;;;;;;4995831;28;92849;-72
2022/05/25 00:24:10;;;;;;;6.88;6.32;;;12.90;99.90;;;;;;4994644;28;92471;-71
2022/05/25 00:26:37;;;;;;;8.38;7.43;;;12.90;99.90;;;;;;5010398;28;103080;-71
2022/05/25 00:29:04;;;;;;;6.78;6.28;;;12.90;99.90;;;;;;4995865;28;92477;-71
2022/05/25 00:31:32;;;;;;;6.80;6.28;;;12.90;99.90;;;;;;5010841;28;92500;-72
2022/05/25 00:33:59;;;;;;;7.60;6.90;;;12.80;99.90;;;;;;4992900;28;97371;-71
2022/05/25 00:36:26;;;;;;;8.00;6.72;;;12.80;99.90;;;;;;4995170;28;95373;-71
2022/05/25 00:38:54;;;;;;;8.60;7.88;;;12.80;99.90;;;;;;4995408;28;92466;-71
2022/05/25 00:41:28;;;;;;;8.45;7.40;;;12.80;99.90;;;;;;4994272;28;92499;-71
2022/05/25 00:43:56;;;;;;;9.73;8.32;;;12.80;99.90;;;;;;4993969;28;93260;-71
2022/05/25 00:46:25;;;;;;;8.98;7.80;;;12.70;99.90;;;;;;4994134;28;92998;-71
2022/05/25 00:49:17;;;;;;;9.77;7.70;;;12.70;99.90;;;;;;4995229;28;92470;-71
2022/05/25 00:51:49;;;;;;;8.88;7.97;;;12.70;99.90;;;;;;4989740;28;91856;-71
2022/05/25 00:54:27;;;;;;;9.13;8.32;;;12.60;99.90;;;;;;4993693;28;96159;-71
2022/05/25 00:56:56;;;;;;;10.63;8.48;;;12.60;99.90;;;;;;4993918;28;94867;-71
2022/05/25 00:59:33;;;;;;;9.35;8.45;;;12.60;99.90;;;;;;4992791;28;94789;-71
2022/05/25 01:02:00;;;;;;;9.27;8.38;;;12.60;99.90;;;;;;4993713;28;93857;-71
2022/05/25 01:04:27;;;;;;;10.20;9.20;;;12.50;99.90;;;;;;4994000;28;93273;-71
2022/05/25 01:07:28;;;;;;;10.70;9.52;;;12.50;99.90;;;;;;4994954;28;93123;-71
2022/05/25 01:10:33;;;;;;;9.68;8.50;;;12.50;99.90;;;;;;4995201;28;92457;-71
2022/05/25 01:13:33;;;;;;;12.07;9.40;;;12.40;99.90;;;;;;5010004;28;97612;-71
2022/05/25 01:16:17;;;;;;;11.10;9.43;;;12.40;99.90;;;;;;4971494;28;95703;-71
2022/05/25 01:19:21;;;;;;;10.43;9.40;;;12.40;99.90;;;;;;4995321;28;94122;-71
2022/05/25 01:21:59;;;;;;;10.00;9.00;;;12.40;99.90;;;;;;4995056;28;92718;-71
2022/05/25 01:25:08;;;;;;;11.65;9.43;;;12.30;99.90;;;;;;4994918;28;92486;-71
2022/05/25 01:27:40;;;;;;;9.43;8.52;;;12.30;99.90;;;;;;4963387;28;102395;-71
2022/05/25 01:30:33;;;;;;;10.73;9.63;;;12.20;99.90;;;;;;4995002;28;95444;-71
2022/05/25 01:33:12;;;;;;;10.43;8.95;;;12.30;99.90;;;;;;4994931;28;92916;-71
2022/05/25 01:36:15;;;;;;;9.68;8.77;;;12.20;99.90;;;;;;5010122;28;92462;-71
2022/05/25 01:38:50;;;;;;;11.15;9.40;;;12.20;99.90;;;;;;4996631;28;95849;-72
2022/05/25 01:41:29;;;;;;;9.52;8.63;;;12.20;99.90;;;;;;4998232;28;93122;-72
2022/05/25 01:44:04;;;;;;;9.88;8.77;;;12.20;99.90;;;;;;4997043;28;92505;-72
2022/05/25 01:46:44;;;;;;;12.20;9.15;;;12.10;99.90;;;;;;4998825;28;91678;-72
2022/05/25 01:49:28;;;;;;;10.93;9.23;;;12.10;99.90;;;;;;4998174;28;93121;-72
2022/05/25 01:52:01;;;;;;;15.23;9.02;;;12.20;99.90;;;;;;4997829;28;93130;-72
2022/05/25 01:54:33;;;;;;;10.13;9.10;;;12.10;99.90;;;;;;4995950;28;94966;-72
2022/05/25 01:57:08;;;;;;;10.45;8.82;;;12.10;99.90;;;;;;4996469;28;92783;-72
2022/05/25 01:59:35;;;;;;;9.88;8.88;;;12.10;99.90;;;;;;4979812;28;95885;-72
2022/05/25 02:04:52;;;;;;;9.93;9.02;;;12.00;99.90;;;;;;4997975;28;92370;-72
2022/05/25 02:07:31;;;;;;;9.68;8.80;;;12.00;99.90;;;;;;4997991;28;92452;-72
2022/05/25 02:10:13;;;;;;;11.13;9.57;;;12.00;99.90;;;;;;4997657;28;93270;-72
2022/05/25 02:13:13;;;;;;;10.00;9.10;;;12.00;99.90;;;;;;4996715;28;99230;-72
2022/05/25 02:16:11;;;;;;;10.68;9.57;;;12.00;99.90;;;;;;4997779;28;92431;-72
2022/05/25 02:18:41;;;;;;;11.02;9.23;;;11.90;99.90;;;;;;4997909;28;92437;-72
2022/05/25 02:21:39;;;;;;;9.73;8.82;;;11.90;99.90;;;;;;5011372;28;98103;-72
2022/05/25 02:24:16;;;;;;;10.20;9.18;;;11.90;99.90;;;;;;4996173;28;94238;-72
2022/05/25 02:27:24;;;;;;;10.25;9.25;;;11.90;99.90;;;;;;4997704;28;93007;-72
2022/05/25 02:29:58;;;;;;;9.82;8.82;;;11.90;99.90;;;;;;4922646;28;92633;-72
2022/05/25 02:32:46;;;;;;;12.63;9.70;;;11.80;99.90;;;;;;4939167;28;95955;-72
2022/05/25 02:35:16;;;;;;;10.57;9.52;;;11.90;99.90;;;;;;4993164;28;93052;-72
2022/05/25 02:37:43;;;;;;;11.52;8.90;;;11.80;99.90;;;;;;4997038;28;92455;-72
2022/05/25 02:40:13;;;;;;;10.57;9.57;;;11.80;99.90;;;;;;4997348;28;91729;-72
2022/05/25 02:42:41;;;;;;;10.13;9.15;;;11.80;99.90;;;;;;4997055;28;93210;-72
2022/05/25 02:45:10;;;;;;;11.38;10.23;;;11.80;99.90;;;;;;4978694;28;95588;-72
2022/05/25 02:47:38;;;;;;;9.73;8.90;;;11.80;99.90;;;;;;4994583;28;94981;-72
2022/05/25 02:50:06;;;;;;;10.32;9.35;;;11.80;99.90;;;;;;4996618;28;92505;-72
2022/05/25 02:52:33;;;;;;;11.00;9.85;;;11.80;99.90;;;;;;4979173;28;96104;-72
2022/05/25 02:55:00;;;;;;;10.10;9.10;;;11.80;99.90;;;;;;4996739;28;92955;-72
2022/05/25 02:57:27;;;;;;;10.23;9.23;;;11.80;99.90;;;;;;4996931;28;92518;-72
2022/05/25 02:59:54;;;;;;;11.18;9.32;;;11.70;99.90;;;;;;4995555;28;92567;-72
2022/05/25 03:02:21;;;;;;;10.93;9.68;;;11.70;99.90;;;;;;4995397;28;93308;-72
2022/05/25 03:04:49;;;;;;;10.77;9.20;;;11.70;99.90;;;;;;4996918;28;93050;-72
2022/05/25 03:07:16;;;;;;;10.32;9.23;;;11.70;99.90;;;;;;4996306;28;92483;-72
2022/05/25 03:09:43;;;;;;;11.45;10.25;;;11.70;99.90;;;;;;4995543;28;92660;-72
2022/05/25 03:12:11;;;;;;;11.15;9.98;;;11.70;99.90;;;;;;4994610;28;95640;-72
2022/05/25 03:14:38;;;;;;;11.55;10.30;;;11.70;99.90;;;;;;4995916;28;95422;-72
2022/05/25 03:17:10;;;;;;;11.52;10.32;;;11.70;99.90;;;;;;4978153;28;92843;-72
2022/05/25 03:19:37;;;;;;;11.15;9.50;;;11.70;99.90;;;;;;4994763;28;92563;-72
2022/05/25 03:22:04;;;;;;;11.50;10.10;;;11.70;99.90;;;;;;4995056;28;95762;-72
2022/05/25 03:24:32;;;;;;;11.23;10.23;;;11.70;99.90;;;;;;4995690;28;93061;-72
2022/05/25 03:26:59;;;;;;;11.02;9.93;;;11.70;99.90;;;;;;4994413;28;92553;-72
2022/05/25 03:29:26;;;;;;;11.68;10.52;;;11.70;99.90;;;;;;4996995;28;91931;-72
2022/05/25 03:31:54;;;;;;;12.27;10.98;;;11.60;99.90;;;;;;4995917;28;93720;-72
2022/05/25 03:34:22;;;;;;;14.13;11.30;;;11.60;99.90;;;;;;4994209;28;93070;-72
2022/05/25 03:36:54;;;;;;;11.77;10.57;;;11.60;99.90;;;;;;4993449;28;95052;-72
2022/05/25 03:39:28;;;;;;;12.48;11.18;;;11.60;99.90;;;;;;4995807;28;92580;-72
2022/05/25 03:42:07;;;;;;;12.50;11.20;;;11.60;99.90;;;;;;4994376;28;95748;-72
2022/05/25 03:44:35;;;;;;;14.65;11.40;;;11.60;99.90;;;;;;4995899;28;92994;-72
2022/05/25 03:47:03;;;;;;;13.40;11.43;;;11.60;99.90;;;;;;4995513;28;92350;-72
2022/05/25 03:49:30;;;;;;;16.70;11.30;;;11.60;99.90;;;;;;4993918;28;102431;-72
2022/05/25 03:51:57;;;;;;;12.70;11.40;;;11.60;99.90;;;;;;5010865;28;95707;-72
2022/05/25 03:54:24;;;;;;;12.15;10.95;;;11.60;99.90;;;;;;4994557;28;93783;-72
2022/05/25 03:56:52;;;;;;;9.80;8.77;;;11.80;99.90;;;;;;4995600;28;92421;-72
2022/05/25 03:59:19;;;;;;;10.70;9.27;;;12.30;99.90;;;;;;4994372;28;92432;-72
2022/05/25 04:01:46;;;;;;;10.73;9.73;;;12.80;99.90;;;;;;4976939;28;98202;-72
2022/05/25 04:04:13;;;;;;;12.68;10.35;;;13.40;99.90;;;;;;4994467;28;95430;-72
2022/05/25 04:06:40;;;;;;;10.93;9.88;;;14.00;99.90;;;;;;4994259;28;92551;-72
2022/05/25 04:09:09;;;;;;;10.32;9.35;;;14.40;99.90;;;;;;4994279;28;92530;-72
2022/05/25 04:11:37;;;;;;;12.20;10.85;;;14.60;99.70;;;;;;4994219;28;95748;-72
2022/05/25 04:14:04;;;;;;;10.45;9.43;;;14.60;99.60;;;;;;4993910;28;93149;-72
2022/05/25 04:16:32;;;;;;;11.02;9.95;;;14.50;99.70;;;;;;4995874;28;92451;-72
2022/05/25 04:18:59;;;;;;;11.93;10.52;;;14.30;99.90;;;;;;4996312;28;91699;-72
2022/05/25 04:21:26;;;;;;;12.13;10.75;;;14.10;99.90;;;;;;4993467;28;95713;-72
2022/05/25 04:23:53;;;;;;;12.30;11.10;;;13.90;99.90;;;;;;4993443;28;104899;-72
2022/05/25 04:26:20;;;;;;;13.82;12.52;;;13.80;99.90;;;;;;4992686;28;94910;-72
2022/05/25 04:28:47;;;;;;;10.90;9.80;;;13.70;99.90;;;;;;4977663;28;92562;-72
2022/05/25 04:31:14;;;;;;;12.40;11.00;;;13.60;99.90;;;;;;4995428;28;93347;-72
2022/05/25 04:33:42;;;;;;;13.43;11.88;;;13.50;99.90;;;;;;4993565;28;95456;-72
2022/05/25 04:36:08;;;;;;;12.65;11.43;;;13.40;99.90;;;;;;4994938;28;92527;-72
2022/05/25 04:38:36;;;;;;;13.55;11.70;;;13.40;99.90;;;;;;4994924;28;92557;-72
2022/05/25 04:41:03;;;;;;;12.73;11.20;;;13.30;99.90;;;;;;4993660;28;93366;-71
2022/05/25 04:43:30;;;;;;;13.82;12.50;;;13.30;99.90;;;;;;4993534;28;95584;-71
2022/05/25 04:45:59;;;;;;;12.65;11.35;;;13.30;99.90;;;;;;4994988;28;92425;-71
2022/05/25 04:48:26;;;;;;;13.25;11.88;;;13.30;99.90;;;;;;4993293;28;93282;-71
2022/05/25 04:50:56;;;;;;;12.43;11.20;;;13.30;99.90;;;;;;4993505;28;95457;-71
2022/05/25 04:53:23;;;;;;;13.57;11.32;;;13.40;99.90;;;;;;4994268;28;95467;-71
2022/05/25 04:58:45;;;;;;;13.60;11.80;;;13.40;99.90;;;;;;4995047;28;92441;-72
2022/05/25 05:01:13;;;;;;;12.77;11.32;;;13.50;99.90;;;;;;4993078;28;95888;-72
2022/05/25 05:03:41;;;;;;;13.07;11.65;;;13.50;99.90;;;;;;4993272;28;93411;-72
2022/05/25 05:06:09;;;;;;;11.82;10.57;;;13.60;99.90;;;;;;4992805;28;92771;-72
2022/05/25 05:08:37;;;;;;;12.80;11.43;;;13.60;99.90;;;;;;4994456;28;92173;-72
2022/05/25 05:11:14;;;;;;;12.43;11.10;;;13.70;99.90;;;;;;4993996;28;94777;-72
2022/05/25 05:13:41;;;;;;;13.38;12.15;;;13.80;99.90;;;;;;4996961;28;92906;-72
2022/05/25 05:16:11;;;;;;;12.30;11.00;;;13.90;99.90;;;;;;4995269;28;94910;-72
2022/05/25 05:18:38;;;;;;;11.98;10.65;;;13.90;99.90;;;;;;4997927;28;92381;-72
2022/05/25 05:21:28;;;;;;;13.70;12.25;;;14.00;99.90;;;;;;4999168;28;94146;-72
2022/05/25 05:23:55;;;;;;;12.23;11.02;;;14.10;99.90;;;;;;4997918;28;92810;-72
2022/05/25 05:26:22;;;;;;;12.57;11.27;;;14.20;99.90;;;;;;4995998;28;92464;-72
2022/05/25 05:28:53;;;;;;;12.10;10.90;;;14.30;99.90;;;;;;4996446;28;92444;-72
2022/05/25 05:31:20;;;;;;;14.27;10.98;;;14.40;99.90;;;;;;4997858;28;93163;-72
2022/05/25 05:33:47;;;;;;;12.30;10.80;;;14.40;99.90;;;;;;5012828;28;112560;-72
2022/05/25 05:36:26;;;;;;;13.10;10.63;;;14.50;99.90;;;;;;5012824;28;92477;-72
2022/05/25 05:38:57;;;;;;;11.07;9.98;;;14.70;99.90;;;;;;4998008;28;93154;-72
2022/05/25 05:41:26;;;;;;;11.07;10.00;;;14.90;99.90;;;;;;5011210;28;100938;-72
2022/05/25 05:43:53;;;;;;;11.07;10.05;;;15.00;99.90;;;;;;4997352;28;95442;-72
2022/05/25 05:46:21;;;;;;;12.00;9.90;;;15.20;99.90;;;;;;4997415;28;92462;-72
2022/05/25 05:48:49;;;;;;;10.10;9.07;;;15.40;99.90;;;;;;4996723;28;92891;-72
2022/05/25 05:51:16;;;;;;;11.15;10.02;;;15.50;99.90;;;;;;5012843;28;95990;-72
2022/05/25 05:53:44;;;;;;;10.60;9.43;;;15.60;99.90;;;;;;4997182;28;93192;-72
2022/05/25 05:56:12;;;;;;;9.95;9.05;;;15.80;99.90;;;;;;5013180;28;94156;-72
2022/05/25 05:58:39;;;;;;;11.30;9.50;;;15.90;99.90;;;;;;4996962;28;91741;-72
2022/05/25 06:01:06;;;;;;;10.43;9.43;;;16.00;99.90;;;;;;4980121;28;93594;-72
2022/05/25 06:03:33;;;;;;;10.52;9.32;;;16.10;99.70;;;;;;4997486;28;92754;-72
2022/05/25 06:06:00;;;;;;;10.85;9.85;;;16.20;99.50;;;;;;4995593;28;94968;-72
2022/05/25 06:08:29;;;;;;;10.10;9.20;;;16.30;99.50;;;;;;4995910;28;92538;-72
2022/05/25 06:10:57;;;;;;;10.27;9.23;;;16.40;99.40;;;;;;4980348;28;92477;-72
2022/05/25 06:13:24;;;;;;;11.75;9.32;;;16.40;99.50;;;;;;4996024;28;93241;-72
2022/05/25 06:21:25;;;;;;;11.00;9.90;;;16.40;99.50;;;;;;4981897;28;95890;-72
2022/05/25 06:23:52;;;;;;;12.00;10.25;;;16.40;99.60;;;;;;4996310;28;95560;-72
2022/05/25 06:26:19;;;;;;;13.27;9.88;;;16.40;99.70;;;;;;4997124;28;92462;-72
2022/05/25 06:28:46;;;;;;;10.43;9.30;;;16.40;99.60;;;;;;4997623;28;92931;-72
2022/05/25 06:31:13;;;;;;;10.93;9.77;;;16.50;99.60;;;;;;4994406;28;108334;-72
2022/05/25 06:33:43;;;;;;;10.82;9.73;;;16.60;99.60;;;;;;4996926;28;95355;-72
2022/05/25 06:36:17;;;;;;;11.40;10.18;;;16.70;99.50;;;;;;4997470;28;92427;-72
2022/05/25 06:38:44;;;;;;;9.70;8.80;;;16.80;99.30;;;;;;4995044;28;93456;-72
2022/05/25 06:41:12;;;;;;;10.98;9.88;;;16.90;99.20;;;;;;4996128;28;92496;-72
2022/05/25 06:44:17;;;;;;;11.27;10.18;;;17.00;99.10;;;;;;4993237;28;105105;-72
2022/05/25 06:46:54;;;;;;;12.07;9.95;;;17.20;98.90;;;;;;4978710;28;92470;-72
2022/05/25 06:49:28;;;;;;;11.27;10.05;;;17.20;98.90;;;;;;4979405;28;91765;-72
2022/05/25 06:51:56;;;;;;;11.20;9.13;;;17.20;98.70;;;;;;4994979;28;94228;-72
2022/05/25 06:54:22;;;;;;;10.90;9.65;;;17.20;98.80;;;;;;4979297;28;92896;-72
2022/05/25 06:56:50;;;;;;;10.82;8.75;;;17.20;98.80;;;;;;4977754;28;94938;-72
2022/05/25 06:59:17;;;;;;;12.93;10.00;;;17.20;98.60;;;;;;4979349;28;92478;-72
2022/05/25 07:01:45;;;;;;;9.98;8.20;;;17.30;98.50;;;;;;4996279;28;92946;-73
2022/05/25 07:04:12;;;;;;;9.65;7.05;;;17.30;98.30;;;;;;4996836;28;92814;-73
2022/05/25 07:11:29;;;;;;;10.30;8.38;;;17.40;98.10;;;;;;4987753;28;93001;-72
2022/05/25 07:13:58;;;;;;;10.32;8.55;;;17.30;98.40;;;;;;4996600;28;93369;-73
2022/05/25 07:16:35;;;;;;;10.48;8.15;;;17.40;98.20;;;;;;4978824;28;95523;-72
2022/05/25 07:19:03;;;;;;;10.20;9.00;;;17.60;98.10;;;;;;4996717;28;92379;-72
2022/05/25 07:21:31;;;;;;;8.30;7.50;;;17.50;97.80;;;;;;4979120;28;92539;-72
2022/05/25 07:24:00;;;;;;;8.95;7.88;;;17.60;97.70;;;;;;4977857;28;95560;-72
2022/05/25 07:26:29;;;;;;;8.63;7.82;;;17.70;97.20;;;;;;4978581;28;94245;-72
2022/05/25 07:28:56;;;;;;;7.80;6.53;;;17.70;97.10;;;;;;4996364;28;92413;-73
2022/05/25 07:31:43;;;;;;;7.57;6.18;;;17.70;97.20;;;;;;4995906;28;96831;-73
2022/05/25 07:34:18;;;;;;;6.95;6.25;;;17.80;96.60;;;;;;4977585;28;95931;-72
2022/05/25 07:36:53;;;;;;;7.60;6.78;;;17.80;96.50;;;;;;4978606;28;93034;-73
2022/05/25 07:39:24;;;;;;;8.75;6.30;;;17.90;96.10;;;;;;4996439;28;92446;-73
2022/05/25 07:41:54;;;;;;;7.68;6.13;;;17.90;96.30;;;;;;4978702;28;91789;-73
2022/05/25 07:44:57;;;;;;;7.68;6.03;;;18.00;96.30;;;;;;4977936;28;95918;-72
2022/05/25 07:47:46;;;;;;;19.15;7.13;;;18.10;95.70;;;;;;4959752;28;95444;-73
2022/05/25 07:50:13;;;;;;;6.70;6.10;;;18.10;95.90;;;;;;4994871;28;94747;-72
2022/05/25 07:52:41;;;;;;;6.45;5.38;;;18.30;95.70;;;;;;4962206;28;92831;-73
2022/05/25 07:55:08;;;;;;;5.15;4.65;;;18.50;95.50;;;;;;4995902;28;92993;-73
2022/05/25 07:57:36;;;;;;;6.93;6.40;;;18.80;95.40;;;;;;4996135;28;93158;-73
2022/05/25 08:00:04;;;;;;;7.63;5.90;;;19.30;94.90;;;;;;4961761;28;92450;-73
2022/05/25 08:05:44;;;;;;;6.70;6.10;;;21.50;91.70;;;;;;4995989;28;93869;-73
2022/05/25 08:08:20;;;;;;;7.10;4.05;;;22.90;86.50;;;;;;4978153;28;95475;-73
2022/05/25 08:10:54;;;;;;;4.85;4.45;;;24.10;80.40;;;;;;4995615;28;92547;-73
2022/05/25 08:13:23;;;;;;;4.22;3.70;;;25.20;74.20;;;;;;4977814;28;92404;-73
2022/05/25 08:15:51;;;;;;;5.55;5.03;;;26.10;71.40;;;;;;4944525;28;95717;-73
2022/05/25 08:18:19;;;;;;;4.75;4.45;;;27.00;67.20;;;;;;4978043;28;95327;-73
2022/05/25 08:20:46;;;;;;;3.40;3.10;;;27.90;64.90;;;;;;4995628;28;97375;-73
2022/05/25 08:23:16;;;;;;;4.47;4.07;;;28.60;61.00;;;;;;4977965;28;92525;-73
2022/05/25 08:25:44;;;;;;;5.63;4.45;;;29.40;59.00;;;;;;4995567;28;93329;-73
2022/05/25 08:28:11;;;;;;;4.40;4.00;;;29.80;55.10;;;;;;4977544;28;93998;-74
2022/05/25 08:30:40;;;;;;;3.90;3.50;;;30.20;54.20;;;;;;4995935;28;92403;-73
2022/05/25 08:33:08;;;;;;;4.57;4.38;;;30.60;53.10;;;;;;4996052;28;91698;-73
2022/05/25 08:35:35;;;;;;;3.60;3.30;;;30.90;51.10;;;;;;4960806;28;96201;-74
2022/05/25 08:38:03;;;;;;;4.88;4.47;;;31.00;49.00;;;;;;4945228;28;94083;-74
2022/05/25 08:40:32;;;;;;;3.65;3.35;;;31.40;47.60;;;;;;4960031;28;94891;-74
2022/05/25 08:43:19;;;;;;;4.55;4.35;;;31.50;47.50;;;;;;4977670;28;92476;-74
2022/05/25 08:45:57;;;;;;;3.15;2.85;;;31.90;45.20;;;;;;4977873;28;95628;-74
2022/05/25 08:48:26;;;;;;;3.30;3.00;;;31.60;44.50;;;;;;4981322;28;92533;-74
2022/05/25 08:50:58;;;;;;;4.50;4.10;;;31.30;45.10;;;;;;4999063;28;92352;-74
2022/05/25 08:53:30;;;;;;;2.83;2.63;;;31.30;45.10;;;;;;4998910;28;92466;-74
2022/05/25 08:56:19;;;;;;;2.92;2.72;;;31.30;45.00;;;;;;4980649;28;93219;-74
2022/05/25 08:59:03;;;;;;;2.83;2.63;;;31.50;43.50;;;;;;4999332;28;92169;-74
2022/05/25 09:01:33;;;;;;;3.88;2.72;;;31.10;43.90;;;;;;4999015;28;92436;-74
2022/05/25 09:04:21;;;;;;;2.75;2.42;;;30.60;44.60;;;;;;4980863;28;92456;-74
2022/05/25 09:07:01;;;;;;;3.75;2.60;;;30.30;44.00;;;;;;4979325;28;98413;-73
2022/05/25 09:09:42;;;;;;;5.20;3.55;;;29.80;45.40;;;;;;4998489;28;95265;-73
2022/05/25 09:12:29;;;;;;;6.97;3.55;;;29.40;46.70;;;;;;4980816;28;92508;-73
2022/05/25 09:15:34;;;;;;;5.63;2.88;;;29.10;47.70;;;;;;4998779;28;92598;-73
2022/05/25 09:18:08;;;;;;;4.32;2.88;;;28.50;48.40;;;;;;4936779;28;92995;-73
2022/05/25 09:20:49;;;;;;;4.18;2.28;;;28.00;49.40;;;;;;4972744;28;93015;-73
2022/05/25 09:23:16;;;;;;;3.92;3.60;;;27.80;49.30;;;;;;4998838;28;92870;-73
2022/05/25 09:25:46;;;;;;;2.92;2.20;;;27.60;50.00;;;;;;4999005;28;91690;-73
2022/05/25 09:28:19;;;;;;;4.70;2.40;;;27.50;50.10;;;;;;4980003;28;95771;-73
2022/05/25 09:30:53;;;;;;;2.85;2.58;;;27.40;50.60;;;;;;4998498;28;93019;-73
2022/05/25 09:33:42;;;;;;;3.40;2.70;;;27.20;51.00;;;;;;4979597;28;94915;-73
2022/05/25 09:36:29;;;;;;;2.97;2.40;;;27.20;51.80;;;;;;4980219;28;92834;-73
2022/05/25 09:39:12;;;;;;;3.95;3.65;;;27.30;51.70;;;;;;4980243;28;94338;-73
2022/05/25 09:41:45;;;;;;;2.92;2.72;;;27.20;50.10;;;;;;4998255;28;93067;-73
2022/05/25 09:44:16;;;;;;;4.05;2.75;;;27.10;51.00;;;;;;4980291;28;92860;-73
2022/05/25 09:46:52;;;;;;;4.50;3.95;;;26.90;51.60;;;;;;4980187;28;92580;-73
2022/05/25 09:49:44;;;;;;;4.78;4.47;;;26.70;51.80;;;;;;4998353;28;93206;-73
2022/05/25 09:52:15;;;;;;;4.25;3.83;;;26.60;52.10;;;;;;4980738;28;93010;-73
2022/05/25 09:54:48;;;;;;;4.13;3.83;;;26.20;52.50;;;;;;4997986;28;92344;-73
2022/05/25 09:57:27;;;;;;;2.92;2.72;;;26.00;53.80;;;;;;4980273;28;92857;-73
2022/05/25 10:00:15;;;;;;;4.15;3.85;;;26.00;53.30;;;;;;4978590;28;98078;-73
2022/05/25 10:02:49;;;;;;;3.22;2.92;;;25.90;53.20;;;;;;4997689;28;95318;-73
2022/05/25 10:05:30;;;;;;;3.78;3.35;;;25.90;53.90;;;;;;4979704;28;92894;-73
2022/05/25 10:08:09;;;;;;;2.50;2.40;;;26.00;52.90;;;;;;4979753;28;92738;-73
2022/05/25 10:10:55;;;;;;;4.05;3.80;;;26.00;53.80;;;;;;4976025;28;93259;-73
2022/05/25 10:13:29;;;;;;;4.40;3.30;;;25.80;54.90;;;;;;4977878;28;93017;-73
2022/05/25 10:15:58;;;;;;;3.17;2.80;;;25.70;55.90;;;;;;4976735;28;92469;-73
2022/05/25 10:18:37;;;;;;;6.28;4.00;;;25.50;56.00;;;;;;4977881;28;91761;-73
2022/05/25 10:21:09;;;;;;;4.57;4.18;;;25.50;55.00;;;;;;4977948;28;92983;-73
2022/05/25 10:23:41;;;;;;;3.30;2.78;;;25.40;54.70;;;;;;4977708;28;93008;-73
2022/05/25 10:26:17;;;;;;;3.30;3.05;;;25.50;54.90;;;;;;4976622;28;94796;-73
2022/05/25 10:28:56;;;;;;;3.67;2.75;;;25.70;54.80;;;;;;4977574;28;92457;-73
2022/05/25 10:37:19;;;;;;;3.10;2.90;;;25.60;54.60;;;;;;4977477;28;92397;-73
2022/05/25 10:40:00;;;;;;;2.65;2.45;;;25.60;54.10;;;;;;4973637;28;92694;-73
2022/05/25 10:42:50;;;;;;;3.63;3.35;;;25.60;54.30;;;;;;4977410;28;93214;-73
2022/05/25 10:45:23;;;;;;;4.57;4.28;;;25.40;54.40;;;;;;4977696;28;92710;-73
2022/05/25 10:47:54;;;;;;;;;;;25.40;54.90;;;;;;4977910;28;92403;-73
2022/05/25 10:50:35;;;;;;;3.50;3.20;;;25.00;55.40;;;;;;4978597;28;92411;-73
2022/05/25 10:53:41;;;;;;;3.40;2.90;;;25.00;56.40;;;;;;4975818;28;95493;-73
2022/05/25 10:56:33;;;;;;;2.58;2.38;;;24.80;57.40;;;;;;4977134;28;95382;-73
2022/05/25 10:59:15;;;;;;;4.40;3.88;;;24.60;56.20;;;;;;4975778;28;92890;-73
2022/05/25 11:02:10;;;;;;;5.10;3.13;;;24.50;56.80;;;;;;4975625;28;92470;-73
2022/05/25 11:05:07;;;;;;;4.20;3.85;;;24.70;57.30;;;;;;4975507;28;95688;-73
2022/05/25 11:07:39;;;;;;;3.75;3.50;;;25.00;56.10;;;;;;4961714;28;92984;-73
2022/05/25 11:10:34;;;;;;;3.65;3.35;;;25.00;56.10;;;;;;4977251;28;92503;-73
2022/05/25 11:13:28;;;;;;;5.68;3.40;;;25.10;55.90;;;;;;4979131;28;94409;-73
2022/05/25 11:16:26;;;;;;;5.00;4.50;;;25.30;55.50;;;;;;4978635;28;95735;-73
2022/05/25 11:19:25;;;;;;;4.28;3.85;;;25.40;55.20;;;;;;4978175;28;97150;-73
2022/05/25 11:22:16;;;;;;;4.78;4.28;;;25.40;55.60;;;;;;4995612;28;95334;-73
2022/05/25 11:25:09;;;;;;;4.70;4.22;;;25.40;54.70;;;;;;4996731;28;92546;-73
2022/05/25 11:27:45;;;;;;;3.65;3.10;;;25.30;56.50;;;;;;4996467;28;93366;-73
2022/05/25 11:30:22;;;;;;;3.75;3.50;;;25.10;56.50;;;;;;4978387;28;95495;-73
2022/05/25 11:33:07;;;;;;;7.20;4.00;;;25.10;57.00;;;;;;4996289;28;92530;-73
2022/05/25 11:35:44;;;;;;;4.25;3.95;;;24.90;57.50;;;;;;4996385;28;92906;-73
2022/05/25 11:38:25;;;;;;;5.03;4.25;;;25.10;57.90;;;;;;4978147;28;95644;-73
2022/05/25 11:41:30;;;;;;;4.45;3.70;;;25.10;56.90;;;;;;4996395;28;92843;-73
2022/05/25 11:44:00;;;;;;;3.92;3.53;;;25.30;57.00;;;;;;4996289;28;92793;-73
2022/05/25 11:46:44;;;;;;;4.50;4.10;;;25.20;56.40;;;;;;4962020;28;92612;-73
2022/05/25 11:49:31;;;;;;;5.18;4.03;;;25.30;55.80;;;;;;4994346;28;95622;-73
2022/05/25 11:52:39;;;;;;;3.45;3.22;;;25.30;55.40;;;;;;4975063;28;95427;-73
2022/05/25 11:55:09;;;;;;;2.45;2.20;;;25.40;52.80;;;;;;4996555;28;92669;-72
2022/05/25 11:57:49;;;;;;;3.05;2.85;;;25.30;52.70;;;;;;4994390;28;92616;-73
2022/05/25 12:00:48;;;;;;;3.75;2.75;;;25.50;51.40;;;;;;4978335;28;94084;-73
2022/05/25 12:03:31;;;;;;;2.47;2.00;;;25.70;51.20;;;;;;4996114;28;93023;-73
2022/05/25 12:05:58;;;;;;;2.72;2.53;;;25.80;50.30;;;;;;4977756;28;92522;-73
2022/05/25 12:08:58;;;;;;;3.22;2.92;;;25.60;50.20;;;;;;4978169;28;91913;-73
2022/05/25 12:11:38;;;;;;;3.83;3.53;;;25.50;50.20;;;;;;4977648;28;100247;-73
2022/05/25 12:14:50;;;;;;;3.45;2.92;;;25.40;51.60;;;;;;4977526;28;95720;-73
2022/05/25 12:17:26;;;;;;;5.00;4.47;;;25.30;52.70;;;;;;4917073;28;96171;-73
2022/05/25 12:19:55;;;;;;;3.90;3.50;;;25.00;53.00;;;;;;4974202;28;92550;-73
2022/05/25 12:22:28;;;;;;;9.93;4.80;;;24.60;54.10;;;;;;4995401;28;93303;-73
2022/05/25 12:24:58;;;;;;;5.00;3.88;;;24.20;55.00;;;;;;4977778;28;93078;-73
2022/05/25 12:27:35;;;;;;;5.13;4.72;;;23.80;56.30;;;;;;4995818;28;92863;-73
2022/05/25 12:30:26;;;;;;;5.90;4.85;;;23.50;57.50;;;;;;4977988;28;92552;-73
2022/05/25 12:32:54;;;;;;;4.97;4.13;;;23.00;63.90;;;;;;4977592;28;93357;-73
2022/05/25 12:35:22;;;;;;;5.13;4.72;;;22.60;66.80;;;;;;4995558;28;92943;-73
2022/05/25 12:37:53;;;;;;;6.20;5.63;;;22.40;68.90;;;;;;4977548;28;92569;-73
2022/05/25 12:40:26;;;;;;;7.93;6.40;;;22.20;70.50;;;;;;4995717;28;92386;-73
2022/05/25 12:42:53;;;;;;;8.40;7.57;;;22.20;72.20;;;;;;4992432;28;98102;-73
2022/05/25 12:48:31;;;;;;;8.02;7.43;;;22.20;76.20;;;;;;4995669;28;92450;-73
2022/05/25 12:51:09;;;;;;;8.05;7.32;;;22.50;76.30;;;;;;4976504;28;92527;-73
2022/05/25 12:53:39;;;;;;;9.02;8.25;;;22.80;76.60;;;;;;4995173;28;93277;-73
2022/05/25 12:56:19;;;;;;;8.15;7.45;;;22.90;75.50;;;;;;4977354;28;94305;-73
2022/05/25 12:58:47;;;;;;;7.55;6.85;;;23.00;74.80;;;;;;4995109;28;92347;-73
2022/05/25 13:01:13;;;;;;;8.65;7.80;;;23.20;74.00;;;;;;4994088;28;91852;-73
2022/05/25 13:03:47;;;;;;;8.02;7.43;;;23.50;72.80;;;;;;4993432;28;96955;-73
2022/05/25 13:06:21;;;;;;;7.72;6.07;;;23.70;71.50;;;;;;4976762;28;96113;-73
2022/05/25 13:08:51;;;;;;;6.40;5.90;;;23.90;70.80;;;;;;4994070;28;94859;-73
2022/05/25 13:11:47;;;;;;;7.97;7.18;;;24.00;70.40;;;;;;4995028;28;92562;-73
2022/05/25 13:14:17;;;;;;;6.80;6.30;;;24.10;69.30;;;;;;4977241;28;94327;-73
2022/05/25 13:16:48;;;;;;;7.13;6.43;;;23.90;69.60;;;;;;4994642;28;93005;-73
2022/05/25 13:19:17;;;;;;;10.80;7.07;;;23.70;69.80;;;;;;4995113;28;92474;-73
2022/05/25 13:21:51;;;;;;;7.40;6.80;;;23.50;70.00;;;;;;4994491;28;101519;-73
2022/05/25 13:24:33;;;;;;;7.80;6.47;;;23.20;71.70;;;;;;4995044;28;93338;-73
2022/05/25 13:27:21;;;;;;;6.25;5.45;;;23.00;71.60;;;;;;4995183;28;93179;-72
2022/05/25 13:30:29;;;;;;;7.00;6.45;;;23.00;74.50;;;;;;4994826;28;92490;-73
2022/05/25 13:33:19;;;;;;;6.07;4.60;;;23.10;75.10;;;;;;4965425;28;92485;-73
2022/05/25 13:36:05;;;;;;;7.63;3.90;;;23.40;72.70;;;;;;4997047;28;95748;-72
2022/05/25 13:38:41;;;;;;;6.38;3.45;;;23.60;72.00;;;;;;4980433;28;95172;-73
2022/05/25 13:41:12;;;;;;;5.80;2.90;;;23.80;69.90;;;;;;4998338;28;92525;-73
2022/05/25 13:43:57;;;;;;;3.17;2.60;;;24.00;69.60;;;;;;4998299;28;92462;-73
2022/05/25 13:46:49;;;;;;;5.75;2.05;;;24.20;68.60;;;;;;4997961;28;93086;-73
2022/05/25 13:49:22;;;;;;;4.15;1.92;;;24.30;65.00;;;;;;4973354;28;92509;-73
2022/05/25 13:51:51;;;;;;;3.70;2.70;;;24.30;64.80;;;;;;4998052;28;92542;-73